Time,TemperatureF,DewpointF,PressureIn,WindDirection,WindDirectionDegrees,WindSpeedMPH,WindSpeedGustMPH,Humidity,HourlyPrecipIn,Conditions,Clouds,dailyrainin,SoftwareType,DateUTC
2013-04-08 00:00:00,59.5,46.2,29.99,West,270,0.1,0.1,61,0.00,,,0.00,WUHU216TE923,2013-04-08 04:00:00,
2013-04-08 00:05:00,59.5,46.2,29.99,West,270,0.1,0.1,61,0.00,,,0.00,WUHU216TE923,2013-04-08 04:05:00,
2013-04-08 00:10:00,59.5,46.2,29.99,West,270,0.1,0.1,61,0.00,,,0.00,WUHU216TE923,2013-04-08 04:10:00,
2013-04-08 00:15:00,59.5,46.2,29.99,West,270,0.1,0.1,61,0.00,,,0.00,WUHU216TE923,2013-04-08 04:15:00,
2013-04-08 00:20:00,59.4,45.6,30.00,NE,45,0.0,0.1,60,0.00,,,0.00,WUHU216TE923,2013-04-08 04:20:00,
2013-04-08 00:25:00,59.2,45.4,30.00,NE,45,0.0,0.0,60,0.00,,,0.00,WUHU216TE923,2013-04-08 04:25:00,
2013-04-08 00:30:00,59.0,45.7,30.00,NE,45,0.0,0.0,61,0.00,,,0.00,WUHU216TE923,2013-04-08 04:30:00,
2013-04-08 00:35:00,58.8,45.5,30.00,NE,45,0.0,0.0,61,0.00,,,0.00,WUHU216TE923,2013-04-08 04:35:00,
2013-04-08 00:40:00,58.5,45.7,29.99,NE,45,0.0,0.0,62,0.00,,,0.00,WUHU216TE923,2013-04-08 04:40:00,
2013-04-08 00:45:00,58.3,45.5,29.99,NE,45,0.0,0.0,62,0.00,,,0.00,WUHU216TE923,2013-04-08 04:45:00,
2013-04-08 00:50:00,58.3,45.5,29.99,East,90,0.0,0.0,62,0.00,,,0.00,WUHU216TE923,2013-04-08 04:50:00,
2013-04-08 00:55:00,58.1,44.8,29.99,East,90,0.0,0.0,61,0.00,,,0.00,WUHU216TE923,2013-04-08 04:55:00,
2013-04-08 01:00:00,58.1,45.3,29.99,East,90,0.0,0.0,62,0.00,,,0.00,WUHU216TE923,2013-04-08 05:00:00,
2013-04-08 01:05:00,58.1,45.3,29.99,NW,315,0.0,0.0,62,0.00,,,0.00,WUHU216TE923,2013-04-08 05:05:00,
2013-04-08 01:10:00,57.7,44.9,29.99,WNW,293,0.0,0.0,62,0.00,,,0.00,WUHU216TE923,2013-04-08 05:10:00,
2013-04-08 01:15:00,57.7,45.3,29.99,WNW,293,0.0,0.0,63,0.00,,,0.00,WUHU216TE923,2013-04-08 05:15:00,
2013-04-08 01:20:00,57.4,45.0,29.99,WNW,293,0.0,0.0,63,0.00,,,0.00,WUHU216TE923,2013-04-08 05:20:00,
2013-04-08 01:25:00,57.0,45.1,29.99,WNW,293,0.0,0.0,64,0.00,,,0.00,WUHU216TE923,2013-04-08 05:25:00,
2013-04-08 01:30:00,57.0,45.1,29.99,WNW,293,0.0,0.0,64,0.00,,,0.00,WUHU216TE923,2013-04-08 05:30:00,
2013-04-08 01:35:00,56.8,44.9,29.99,WNW,293,0.0,0.0,64,0.00,,,0.00,WUHU216TE923,2013-04-08 05:35:00,
2013-04-08 01:40:00,56.7,44.8,29.99,WNW,293,0.0,0.0,64,0.00,,,0.00,WUHU216TE923,2013-04-08 05:40:00,
2013-04-08 01:45:00,56.5,45.0,29.99,WNW,293,0.0,0.0,65,0.00,,,0.00,WUHU216TE923,2013-04-08 05:45:00,
2013-04-08 01:50:00,56.7,45.2,29.99,WNW,293,0.0,0.0,65,0.00,,,0.00,WUHU216TE923,2013-04-08 05:50:00,
2013-04-08 01:55:00,56.7,45.2,29.99,WNW,293,0.0,0.0,65,0.00,,,0.00,WUHU216TE923,2013-04-08 05:55:00,
2013-04-08 02:00:00,56.3,44.4,29.99,WNW,293,0.0,0.0,64,0.00,,,0.00,WUHU216TE923,2013-04-08 06:00:00,
2013-04-08 02:06:00,56.1,44.6,29.99,WNW,293,0.0,0.0,65,0.00,,,0.00,WUHU216TE923,2013-04-08 06:06:00,
2013-04-08 02:11:00,55.9,45.2,29.99,WNW,293,0.0,0.0,67,0.00,,,0.00,WUHU216TE923,2013-04-08 06:11:00,
2013-04-08 02:16:00,55.9,45.2,29.99,WNW,293,0.0,0.0,67,0.00,,,0.00,WUHU216TE923,2013-04-08 06:16:00,
2013-04-08 02:21:00,55.8,44.7,29.99,WNW,293,0.0,0.0,66,0.00,,,0.00,WUHU216TE923,2013-04-08 06:21:00,
2013-04-08 02:26:00,55.8,44.7,29.99,WNW,293,0.0,0.0,66,0.00,,,0.00,WUHU216TE923,2013-04-08 06:26:00,
2013-04-08 02:31:00,55.6,44.5,29.99,WNW,293,0.0,0.0,66,0.00,,,0.00,WUHU216TE923,2013-04-08 06:31:00,
2013-04-08 02:36:00,55.6,44.5,29.99,WNW,293,0.0,0.0,66,0.00,,,0.00,WUHU216TE923,2013-04-08 06:36:00,
2013-04-08 02:41:00,55.4,44.4,29.99,WNW,293,0.0,0.0,66,0.00,,,0.00,WUHU216TE923,2013-04-08 06:41:00,
2013-04-08 02:46:00,55.4,44.4,29.99,WNW,293,0.0,0.0,66,0.00,,,0.00,WUHU216TE923,2013-04-08 06:46:00,
2013-04-08 02:51:00,55.6,44.9,29.99,WNW,293,0.0,0.0,67,0.00,,,0.00,WUHU216TE923,2013-04-08 06:51:00,
2013-04-08 02:56:00,55.6,44.9,29.99,WNW,293,0.0,0.0,67,0.00,,,0.00,WUHU216TE923,2013-04-08 06:56:00,
2013-04-08 03:01:00,55.2,44.9,29.98,WNW,293,0.0,0.0,68,0.00,,,0.00,WUHU216TE923,2013-04-08 07:01:00,
2013-04-08 03:06:00,55.2,44.9,29.98,WNW,293,0.0,0.0,68,0.00,,,0.00,WUHU216TE923,2013-04-08 07:06:00,
2013-04-08 03:11:00,55.0,44.8,29.98,WNW,293,0.0,0.0,68,0.00,,,0.00,WUHU216TE923,2013-04-08 07:11:00,
2013-04-08 03:17:00,55.0,44.8,29.98,WNW,293,0.0,0.0,68,0.00,,,0.00,WUHU216TE923,2013-04-08 07:17:00,
2013-04-08 03:22:00,55.0,44.8,29.98,WNW,293,0.0,0.0,68,0.00,,,0.00,WUHU216TE923,2013-04-08 07:22:00,
2013-04-08 03:27:00,54.9,44.7,29.98,WNW,293,0.0,0.0,68,0.00,,,0.00,WUHU216TE923,2013-04-08 07:27:00,
2013-04-08 03:32:00,54.9,45.0,29.98,WNW,293,0.0,0.0,69,0.00,,,0.00,WUHU216TE923,2013-04-08 07:32:00,
2013-04-08 03:37:00,54.7,44.8,29.97,WNW,293,0.0,0.0,69,0.00,,,0.00,WUHU216TE923,2013-04-08 07:37:00,
2013-04-08 03:42:00,54.9,45.0,29.97,WNW,293,0.0,0.0,69,0.00,,,0.00,WUHU216TE923,2013-04-08 07:42:00,
2013-04-08 03:47:00,54.7,44.8,29.97,WNW,293,0.0,0.0,69,0.00,,,0.00,WUHU216TE923,2013-04-08 07:47:00,
2013-04-08 03:52:00,54.5,44.7,29.97,WNW,293,0.0,0.0,69,0.00,,,0.00,WUHU216TE923,2013-04-08 07:52:00,
2013-04-08 03:57:00,54.5,44.7,29.97,WNW,293,0.0,0.0,69,0.00,,,0.00,WUHU216TE923,2013-04-08 07:57:00,
2013-04-08 04:02:00,54.5,44.7,29.97,WNW,293,0.0,0.0,69,0.00,,,0.00,WUHU216TE923,2013-04-08 08:02:00,
2013-04-08 04:07:00,54.3,44.5,29.97,WNW,293,0.0,0.0,69,0.00,,,0.00,WUHU216TE923,2013-04-08 08:07:00,
2013-04-08 04:12:00,54.3,44.5,29.97,WNW,293,0.0,0.0,69,0.00,,,0.00,WUHU216TE923,2013-04-08 08:12:00,
2013-04-08 04:17:00,54.3,44.5,29.95,WNW,293,0.0,0.0,69,0.00,,,0.00,WUHU216TE923,2013-04-08 08:17:00,
2013-04-08 04:22:00,54.1,44.3,29.95,WNW,293,0.0,0.0,69,0.00,,,0.00,WUHU216TE923,2013-04-08 08:22:00,
2013-04-08 04:27:00,54.0,44.2,29.95,WNW,293,0.0,0.0,69,0.00,,,0.00,WUHU216TE923,2013-04-08 08:27:00,
2013-04-08 04:32:00,54.1,44.3,29.95,WNW,293,0.0,0.0,69,0.00,,,0.00,WUHU216TE923,2013-04-08 08:32:00,
2013-04-08 04:37:00,53.8,44.4,29.95,WNW,293,0.0,0.0,70,0.00,,,0.00,WUHU216TE923,2013-04-08 08:37:00,
2013-04-08 04:42:00,53.8,44.4,29.95,WNW,293,0.0,0.0,70,0.00,,,0.00,WUHU216TE923,2013-04-08 08:42:00,
2013-04-08 04:47:00,53.8,44.7,29.95,WNW,293,0.0,0.0,71,0.00,,,0.00,WUHU216TE923,2013-04-08 08:47:00,
2013-04-08 04:52:00,53.8,44.4,29.95,SW,225,0.0,0.0,70,0.00,,,0.00,WUHU216TE923,2013-04-08 08:52:00,
2013-04-08 04:57:00,54.1,44.3,29.95,SSW,203,0.0,0.0,69,0.00,,,0.00,WUHU216TE923,2013-04-08 08:57:00,
2013-04-08 05:02:00,54.1,44.3,29.95,SW,225,0.0,0.0,69,0.00,,,0.00,WUHU216TE923,2013-04-08 09:02:00,
2013-04-08 05:08:00,53.6,44.2,29.95,SW,225,0.0,0.0,70,0.00,,,0.00,WUHU216TE923,2013-04-08 09:08:00,
2013-04-08 05:13:00,53.8,44.4,29.95,SW,225,0.0,0.0,70,0.00,,,0.00,WUHU216TE923,2013-04-08 09:13:00,
2013-04-08 05:18:00,53.4,44.0,29.95,SW,225,0.0,0.0,70,0.00,,,0.00,WUHU216TE923,2013-04-08 09:18:00,
2013-04-08 05:23:00,53.8,44.4,29.95,SW,225,0.0,0.0,70,0.00,,,0.00,WUHU216TE923,2013-04-08 09:23:00,
2013-04-08 05:27:00,53.6,44.2,29.95,SW,225,0.0,0.0,70,0.00,,,0.00,WUHU216TE923,2013-04-08 09:27:00,
2013-04-08 05:32:00,53.4,44.0,29.95,SW,225,0.0,0.0,70,0.00,,,0.00,WUHU216TE923,2013-04-08 09:32:00,
2013-04-08 05:37:00,53.6,43.8,29.95,SW,225,0.0,0.0,69,0.00,,,0.00,WUHU216TE923,2013-04-08 09:37:00,
2013-04-08 05:42:00,53.8,44.0,29.95,SW,225,0.0,0.0,69,0.00,,,0.00,WUHU216TE923,2013-04-08 09:42:00,
2013-04-08 05:47:00,53.8,44.0,29.95,SW,225,0.2,1.3,69,0.00,,,0.00,WUHU216TE923,2013-04-08 09:47:00,
2013-04-08 05:53:00,54.0,43.4,29.95,West,270,0.5,1.4,67,0.00,,,0.00,WUHU216TE923,2013-04-08 09:53:00,
2013-04-08 05:58:00,54.3,43.3,29.95,SW,225,1.0,1.8,66,0.00,,,0.00,WUHU216TE923,2013-04-08 09:58:00,
2013-04-08 06:03:00,54.7,43.7,29.95,SW,225,1.1,1.8,66,0.00,,,0.00,WUHU216TE923,2013-04-08 10:03:00,
2013-04-08 06:08:00,54.7,43.7,29.95,SW,225,1.2,1.8,66,0.00,,,0.00,WUHU216TE923,2013-04-08 10:08:00,
2013-04-08 06:13:00,54.7,43.7,29.95,SW,225,1.2,1.6,66,0.00,,,0.00,WUHU216TE923,2013-04-08 10:13:00,
2013-04-08 06:18:00,55.2,43.8,29.95,SW,225,1.8,3.0,65,0.00,,,0.00,WUHU216TE923,2013-04-08 10:18:00,
2013-04-08 06:23:00,55.0,43.6,29.95,SW,225,1.9,3.0,65,0.00,,,0.00,WUHU216TE923,2013-04-08 10:23:00,
2013-04-08 06:28:00,55.2,43.4,29.95,South,180,1.6,2.2,64,0.00,,,0.00,WUHU216TE923,2013-04-08 10:28:00,
2013-04-08 06:33:00,55.4,43.6,29.95,West,270,1.5,2.5,64,0.00,,,0.00,WUHU216TE923,2013-04-08 10:33:00,
2013-04-08 06:38:00,55.2,43.8,29.94,WSW,248,1.3,2.5,65,0.00,,,0.00,WUHU216TE923,2013-04-08 10:38:00,
2013-04-08 06:43:00,55.2,43.8,29.94,NW,315,1.3,1.3,65,0.00,,,0.00,WUHU216TE923,2013-04-08 10:43:00,
2013-04-08 06:48:00,55.4,44.0,29.94,West,270,1.1,1.9,65,0.00,,,0.00,WUHU216TE923,2013-04-08 10:48:00,
2013-04-08 06:53:00,55.2,43.8,29.94,SW,225,1.1,2.1,65,0.00,,,0.00,WUHU216TE923,2013-04-08 10:53:00,
2013-04-08 06:58:00,55.2,43.8,29.94,SSW,203,0.9,2.1,65,0.00,,,0.00,WUHU216TE923,2013-04-08 10:58:00,
2013-04-08 07:03:00,55.4,44.0,29.94,WSW,248,1.0,1.8,65,0.00,,,0.00,WUHU216TE923,2013-04-08 11:03:00,
2013-04-08 07:08:00,55.6,44.1,29.94,WSW,248,0.7,1.0,65,0.00,,,0.00,WUHU216TE923,2013-04-08 11:08:00,
2013-04-08 07:13:00,55.6,44.1,29.94,SW,225,0.5,1.5,65,0.00,,,0.00,WUHU216TE923,2013-04-08 11:13:00,
2013-04-08 07:18:00,55.6,44.1,29.95,SW,225,0.8,1.5,65,0.00,,,0.00,WUHU216TE923,2013-04-08 11:18:00,
2013-04-08 07:23:00,55.6,44.1,29.95,SW,225,1.1,2.2,65,0.00,,,0.00,WUHU216TE923,2013-04-08 11:23:00,
2013-04-08 07:28:00,55.6,44.1,29.95,West,270,1.3,2.2,65,0.00,,,0.00,WUHU216TE923,2013-04-08 11:28:00,
2013-04-08 07:33:00,55.6,44.1,29.95,SW,225,1.4,2.3,65,0.00,,,0.00,WUHU216TE923,2013-04-08 11:33:00,
2013-04-08 07:38:00,55.6,44.1,29.96,SW,225,1.4,2.3,65,0.00,,,0.00,WUHU216TE923,2013-04-08 11:38:00,
2013-04-08 07:43:00,55.6,44.1,29.96,West,270,1.2,1.4,65,0.00,,,0.00,WUHU216TE923,2013-04-08 11:43:00,
2013-04-08 07:48:00,55.6,44.5,29.96,West,270,0.4,1.2,66,0.00,,,0.00,WUHU216TE923,2013-04-08 11:48:00,
2013-04-08 07:53:00,55.6,44.9,29.96,WNW,293,0.2,1.1,67,0.00,,,0.00,WUHU216TE923,2013-04-08 11:53:00,
2013-04-08 07:58:00,55.6,44.9,29.96,WSW,248,0.1,0.2,67,0.00,,,0.00,WUHU216TE923,2013-04-08 11:58:00,
2013-04-08 08:03:00,55.6,44.9,29.96,West,270,0.0,0.1,67,0.00,,,0.00,WUHU216TE923,2013-04-08 12:03:00,
2013-04-08 08:08:00,55.6,44.9,29.96,West,270,0.0,0.0,67,0.00,,,0.00,WUHU216TE923,2013-04-08 12:08:00,
2013-04-08 08:13:00,55.8,44.7,29.96,SW,225,0.1,0.1,66,0.00,,,0.00,WUHU216TE923,2013-04-08 12:13:00,
2013-04-08 08:18:00,55.8,44.7,29.97,SW,225,0.0,0.1,66,0.00,,,0.00,WUHU216TE923,2013-04-08 12:18:00,
2013-04-08 08:23:00,55.9,44.8,29.97,SSE,158,0.0,0.0,66,0.00,,,0.00,WUHU216TE923,2013-04-08 12:23:00,
2013-04-08 08:28:00,56.3,45.6,29.97,South,180,0.5,0.5,67,0.00,,,0.00,WUHU216TE923,2013-04-08 12:28:00,
2013-04-08 08:33:00,56.3,45.6,29.97,WSW,248,0.7,1.1,67,0.00,,,0.00,WUHU216TE923,2013-04-08 12:33:00,
2013-04-08 08:38:00,56.5,45.8,29.98,West,270,0.4,1.1,67,0.00,,,0.00,WUHU216TE923,2013-04-08 12:38:00,
2013-04-08 08:43:00,56.5,45.8,29.98,SW,225,0.4,1.8,67,0.00,,,0.00,WUHU216TE923,2013-04-08 12:43:00,
2013-04-08 08:48:00,57.0,46.3,29.98,WSW,248,0.7,2.2,67,0.00,,,0.00,WUHU216TE923,2013-04-08 12:48:00,
2013-04-08 08:53:00,57.0,45.9,29.98,SW,225,1.2,2.2,66,0.00,,,0.00,WUHU216TE923,2013-04-08 12:53:00,
2013-04-08 08:58:00,57.2,46.1,29.98,South,180,1.6,3.4,66,0.00,,,0.00,WUHU216TE923,2013-04-08 12:58:00,
2013-04-08 09:03:00,57.4,46.3,29.98,West,270,1.4,3.4,66,0.00,,,0.00,WUHU216TE923,2013-04-08 13:03:00,
2013-04-08 09:08:00,57.7,46.6,29.98,WSW,248,1.5,2.0,66,0.00,,,0.00,WUHU216TE923,2013-04-08 13:08:00,
2013-04-08 09:13:00,57.9,46.7,29.98,SW,225,1.4,2.5,66,0.00,,,0.00,WUHU216TE923,2013-04-08 13:13:00,
2013-04-08 09:19:00,58.1,46.9,29.97,SSE,158,1.3,2.5,66,0.00,,,0.00,WUHU216TE923,2013-04-08 13:19:00,
2013-04-08 09:24:00,58.5,47.3,29.97,WSW,248,1.3,1.9,66,0.00,,,0.00,WUHU216TE923,2013-04-08 13:24:00,
2013-04-08 09:29:00,58.6,47.4,29.97,SSW,203,1.6,3.4,66,0.00,,,0.00,WUHU216TE923,2013-04-08 13:29:00,
2013-04-08 09:34:00,59.2,47.6,29.97,SW,225,2.0,3.4,65,0.00,,,0.00,WUHU216TE923,2013-04-08 13:34:00,
2013-04-08 09:39:00,59.5,48.3,29.97,SW,225,2.3,2.3,66,0.00,,,0.00,WUHU216TE923,2013-04-08 13:39:00,
2013-04-08 09:44:00,59.9,48.3,29.97,SW,225,2.3,2.8,65,0.00,,,0.00,WUHU216TE923,2013-04-08 13:44:00,
2013-04-08 09:49:00,60.6,48.9,29.97,SW,225,2.5,2.8,65,0.00,,,0.00,WUHU216TE923,2013-04-08 13:49:00,
2013-04-08 09:54:00,61.0,48.9,29.97,SW,225,2.9,4.1,64,0.00,,,0.00,WUHU216TE923,2013-04-08 13:54:00,
2013-04-08 09:59:00,61.3,49.2,29.98,SW,225,3.1,4.4,64,0.00,,,0.00,WUHU216TE923,2013-04-08 13:59:00,
2013-04-08 10:04:00,61.7,49.6,29.98,SSW,203,3.3,4.4,64,0.00,,,0.00,WUHU216TE923,2013-04-08 14:04:00,
2013-04-08 10:09:00,62.4,49.8,29.98,SW,225,4.4,6.2,63,0.00,,,0.00,WUHU216TE923,2013-04-08 14:09:00,
2013-04-08 10:14:00,63.0,50.4,29.98,SW,225,5.0,6.6,63,0.00,,,0.00,WUHU216TE923,2013-04-08 14:14:00,
2013-04-08 10:19:00,63.3,50.2,29.99,SW,225,5.7,9.6,62,0.00,,,0.00,WUHU216TE923,2013-04-08 14:19:00,
2013-04-08 10:25:00,63.7,50.6,29.99,SW,225,5.7,9.6,62,0.00,,,0.00,WUHU216TE923,2013-04-08 14:25:00,
2013-04-08 10:30:00,64.4,50.8,29.99,SW,225,5.1,6.7,61,0.00,,,0.00,WUHU216TE923,2013-04-08 14:30:00,
2013-04-08 10:35:00,64.6,51.0,29.99,SW,225,4.9,6.7,61,0.00,,,0.00,WUHU216TE923,2013-04-08 14:35:00,
2013-04-08 10:40:00,64.9,51.3,30.00,SW,225,5.1,6.0,61,0.00,,,0.00,WUHU216TE923,2013-04-08 14:40:00,
2013-04-08 10:45:00,65.3,51.7,30.00,WSW,248,5.6,6.2,61,0.00,,,0.00,WUHU216TE923,2013-04-08 14:45:00,
2013-04-08 10:50:00,65.8,52.1,30.00,West,270,6.0,7.7,61,0.00,,,0.00,WUHU216TE923,2013-04-08 14:50:00,
2013-04-08 10:55:00,66.4,52.7,30.00,SW,225,6.4,10.5,61,0.00,,,0.00,WUHU216TE923,2013-04-08 14:55:00,
2013-04-08 11:00:00,67.1,52.9,30.00,WSW,248,8.6,10.5,60,0.00,,,0.00,WUHU216TE923,2013-04-08 15:00:00,
2013-04-08 11:05:00,67.1,52.4,30.00,WSW,248,9.4,12.7,59,0.00,,,0.00,WUHU216TE923,2013-04-08 15:05:00,
2013-04-08 11:10:00,67.5,52.4,30.00,SW,225,9.5,12.7,58,0.00,,,0.00,WUHU216TE923,2013-04-08 15:10:00,
2013-04-08 11:15:00,67.8,52.6,30.00,WNW,293,9.2,11.2,58,0.00,,,0.00,WUHU216TE923,2013-04-08 15:15:00,
2013-04-08 11:20:00,68.2,52.5,30.00,SW,225,9.5,10.8,57,0.00,,,0.00,WUHU216TE923,2013-04-08 15:20:00,
2013-04-08 11:25:00,68.4,52.7,30.00,West,270,9.1,10.8,57,0.00,,,0.00,WUHU216TE923,2013-04-08 15:25:00,
2013-04-08 11:30:00,69.3,53.6,30.00,WSW,248,9.8,10.6,57,0.00,,,0.00,WUHU216TE923,2013-04-08 15:30:00,
2013-04-08 11:35:00,69.3,53.1,30.00,SW,225,10.9,15.5,56,0.00,,,0.00,WUHU216TE923,2013-04-08 15:35:00,
2013-04-08 11:40:00,68.9,52.7,30.00,West,270,11.0,15.5,56,0.00,,,0.00,WUHU216TE923,2013-04-08 15:40:00,
2013-04-08 11:45:00,68.9,52.7,30.00,WSW,248,10.5,12.9,56,0.00,,,0.00,WUHU216TE923,2013-04-08 15:45:00,
2013-04-08 11:51:00,69.1,52.9,30.00,WNW,293,9.0,11.5,56,0.00,,,0.00,WUHU216TE923,2013-04-08 15:51:00,
2013-04-08 11:56:00,69.4,53.2,30.00,WSW,248,9.1,11.5,56,0.00,,,0.00,WUHU216TE923,2013-04-08 15:56:00,
2013-04-08 12:01:00,70.0,53.2,30.01,SW,225,10.6,15.9,55,0.00,,,0.00,WUHU216TE923,2013-04-08 16:01:00,
2013-04-08 12:06:00,70.0,53.2,30.01,SW,225,10.6,15.9,55,0.00,,,0.00,WUHU216TE923,2013-04-08 16:06:00,
2013-04-08 12:11:00,70.0,53.2,30.01,NW,315,10.3,10.3,55,0.00,,,0.00,WUHU216TE923,2013-04-08 16:11:00,
2013-04-08 12:16:00,70.0,53.2,30.01,NW,315,10.3,10.3,55,0.00,,,0.00,WUHU216TE923,2013-04-08 16:16:00,
2013-04-08 12:21:00,71.2,53.3,30.00,WSW,248,9.2,9.5,53,0.00,,,0.00,WUHU216TE923,2013-04-08 16:21:00,
2013-04-08 12:27:00,71.2,53.3,30.00,WSW,248,9.2,9.5,53,0.00,,,0.00,WUHU216TE923,2013-04-08 16:27:00,
2013-04-08 12:32:00,71.8,53.3,30.00,South,180,8.5,10.6,52,0.00,,,0.00,WUHU216TE923,2013-04-08 16:32:00,
2013-04-08 12:37:00,72.1,53.6,30.01,SW,225,8.0,10.6,52,0.00,,,0.00,WUHU216TE923,2013-04-08 16:37:00,
2013-04-08 12:42:00,72.7,53.6,30.01,WSW,248,8.1,8.2,51,0.00,,,0.00,WUHU216TE923,2013-04-08 16:42:00,
2013-04-08 12:47:00,72.7,53.6,30.01,WSW,248,8.1,8.2,51,0.00,,,0.00,WUHU216TE923,2013-04-08 16:47:00,
2013-04-08 12:52:00,72.7,53.1,30.01,West,270,9.6,9.6,50,0.00,,,0.00,WUHU216TE923,2013-04-08 16:52:00,
2013-04-08 12:57:00,72.7,53.1,30.00,South,180,8.5,9.6,50,0.00,,,0.00,WUHU216TE923,2013-04-08 16:57:00,
2013-04-08 13:02:00,73.2,53.5,30.00,WNW,293,7.6,8.5,50,0.00,,,0.00,WUHU216TE923,2013-04-08 17:02:00,
2013-04-08 13:07:00,73.6,53.3,30.00,WSW,248,8.4,9.0,49,0.00,,,0.00,WUHU216TE923,2013-04-08 17:07:00,
2013-04-08 13:12:00,73.9,53.0,30.00,West,270,9.2,12.1,48,0.00,,,0.00,WUHU216TE923,2013-04-08 17:12:00,
2013-04-08 13:17:00,74.3,53.4,29.99,WSW,248,9.5,14.8,48,0.00,,,0.00,WUHU216TE923,2013-04-08 17:17:00,
2013-04-08 13:22:00,74.5,53.6,29.99,WSW,248,9.8,14.8,48,0.00,,,0.00,WUHU216TE923,2013-04-08 17:22:00,
2013-04-08 13:27:00,75.0,53.4,29.99,WNW,293,10.2,12.9,47,0.00,,,0.00,WUHU216TE923,2013-04-08 17:27:00,
2013-04-08 13:32:00,74.7,53.2,29.99,SW,225,9.5,12.9,47,0.00,,,0.00,WUHU216TE923,2013-04-08 17:32:00,
2013-04-08 13:37:00,74.5,53.6,29.99,West,270,10.0,11.0,48,0.00,,,0.00,WUHU216TE923,2013-04-08 17:37:00,
2013-04-08 13:42:00,74.8,53.2,29.99,WSW,248,10.4,12.0,47,0.00,,,0.00,WUHU216TE923,2013-04-08 17:42:00,
2013-04-08 13:47:00,74.3,52.8,29.99,SW,225,10.1,12.0,47,0.00,,,0.00,WUHU216TE923,2013-04-08 17:47:00,
2013-04-08 13:52:00,74.5,53.6,29.99,SW,225,9.2,10.3,48,0.00,,,0.00,WUHU216TE923,2013-04-08 17:52:00,
2013-04-08 13:57:00,75.0,53.4,29.98,WSW,248,8.1,9.2,47,0.00,,,0.00,WUHU216TE923,2013-04-08 17:57:00,
2013-04-08 14:02:00,74.5,53.0,29.98,WSW,248,8.1,11.6,47,0.00,,,0.00,WUHU216TE923,2013-04-08 18:02:00,
2013-04-08 14:07:00,74.3,53.4,29.98,West,270,9.1,11.6,48,0.00,,,0.00,WUHU216TE923,2013-04-08 18:07:00,
2013-04-08 14:12:00,73.8,52.9,29.98,West,270,9.0,11.3,48,0.00,,,0.00,WUHU216TE923,2013-04-08 18:12:00,
2013-04-08 14:17:00,73.6,53.3,29.98,WSW,248,8.0,11.3,49,0.00,,,0.00,WUHU216TE923,2013-04-08 18:17:00,
2013-04-08 14:22:00,73.6,53.3,29.98,SW,225,7.7,11.2,49,0.00,,,0.00,WUHU216TE923,2013-04-08 18:22:00,
2013-04-08 14:27:00,73.9,53.6,29.98,SW,225,8.0,8.0,49,0.00,,,0.00,WUHU216TE923,2013-04-08 18:27:00,
2013-04-08 14:32:00,73.9,53.6,29.98,SW,225,8.4,11.6,49,0.00,,,0.00,WUHU216TE923,2013-04-08 18:32:00,
2013-04-08 14:37:00,73.8,53.5,29.98,WSW,248,8.4,11.6,49,0.00,,,0.00,WUHU216TE923,2013-04-08 18:37:00,
2013-04-08 14:42:00,73.6,53.3,29.98,West,270,8.5,9.2,49,0.00,,,0.00,WUHU216TE923,2013-04-08 18:42:00,
2013-04-08 14:47:00,73.4,53.1,29.98,NNE,23,8.8,10.7,49,0.00,,,0.00,WUHU216TE923,2013-04-08 18:47:00,
2013-04-08 14:52:00,73.2,53.5,29.98,West,270,8.9,10.7,50,0.00,,,0.00,WUHU216TE923,2013-04-08 18:52:00,
2013-04-08 14:57:00,73.0,53.3,29.98,SW,225,8.4,9.2,50,0.00,,,0.00,WUHU216TE923,2013-04-08 18:57:00,
2013-04-08 15:02:00,72.9,53.2,29.98,WSW,248,9.0,13.4,50,0.00,,,0.00,WUHU216TE923,2013-04-08 19:02:00,
2013-04-08 15:07:00,72.3,53.2,29.98,West,270,8.4,13.4,51,0.00,,,0.00,WUHU216TE923,2013-04-08 19:07:00,
2013-04-08 15:12:00,72.5,53.4,29.98,WSW,248,7.4,9.4,51,0.00,,,0.00,WUHU216TE923,2013-04-08 19:12:00,
2013-04-08 15:17:00,72.1,53.6,29.99,SSE,158,6.2,7.4,52,0.00,,,0.00,WUHU216TE923,2013-04-08 19:17:00,
2013-04-08 15:22:00,72.1,53.6,29.99,West,270,6.2,6.7,52,0.00,,,0.00,WUHU216TE923,2013-04-08 19:22:00,
2013-04-08 15:27:00,71.8,53.3,29.99,West,270,6.5,6.7,52,0.00,,,0.00,WUHU216TE923,2013-04-08 19:27:00,
2013-04-08 15:32:00,71.8,53.9,29.99,SW,225,6.4,7.8,53,0.00,,,0.00,WUHU216TE923,2013-04-08 19:32:00,
2013-04-08 15:37:00,72.1,54.1,29.98,WSW,248,5.8,9.2,53,0.00,,,0.00,WUHU216TE923,2013-04-08 19:37:00,
2013-04-08 15:42:00,71.8,53.9,29.98,WNW,293,5.6,9.2,53,0.00,,,0.00,WUHU216TE923,2013-04-08 19:42:00,
2013-04-08 15:47:00,71.6,54.2,29.98,West,270,5.4,5.9,54,0.00,,,0.00,WUHU216TE923,2013-04-08 19:47:00,
2013-04-08 15:52:00,71.6,54.2,29.98,West,270,5.1,5.9,54,0.00,,,0.00,WUHU216TE923,2013-04-08 19:52:00,
2013-04-08 15:57:00,71.6,54.2,29.97,West,270,4.9,5.2,54,0.00,,,0.00,WUHU216TE923,2013-04-08 19:57:00,
2013-04-08 16:02:00,71.8,54.4,29.97,West,270,5.0,5.8,54,0.00,,,0.00,WUHU216TE923,2013-04-08 20:02:00,
2013-04-08 16:07:00,71.8,54.4,29.97,SW,225,4.9,5.8,54,0.00,,,0.00,WUHU216TE923,2013-04-08 20:07:00,
2013-04-08 16:12:00,71.8,54.4,29.97,SW,225,3.8,4.9,54,0.00,,,0.00,WUHU216TE923,2013-04-08 20:12:00,
2013-04-08 16:17:00,72.1,54.7,29.96,WSW,248,4.1,4.5,54,0.00,,,0.00,WUHU216TE923,2013-04-08 20:17:00,
2013-04-08 16:22:00,72.1,54.7,29.96,SW,225,4.6,4.7,54,0.00,,,0.00,WUHU216TE923,2013-04-08 20:22:00,
2013-04-08 16:27:00,72.1,54.1,29.96,SW,225,5.3,6.2,53,0.00,,,0.00,WUHU216TE923,2013-04-08 20:27:00,
2013-04-08 16:32:00,72.3,53.8,29.96,West,270,6.3,6.3,52,0.00,,,0.00,WUHU216TE923,2013-04-08 20:32:00,
2013-04-08 16:37:00,73.0,54.4,29.95,WSW,248,6.3,6.3,52,0.00,,,0.00,WUHU216TE923,2013-04-08 20:37:00,
2013-04-08 16:42:00,73.0,54.4,29.95,SW,225,5.9,6.3,52,0.00,,,0.00,WUHU216TE923,2013-04-08 20:42:00,
2013-04-08 16:48:00,72.9,53.8,29.95,WSW,248,6.7,8.2,51,0.00,,,0.00,WUHU216TE923,2013-04-08 20:48:00,
2013-04-08 16:53:00,72.5,54.0,29.95,West,270,6.6,8.2,52,0.00,,,0.00,WUHU216TE923,2013-04-08 20:53:00,
2013-04-08 16:58:00,72.3,53.8,29.96,WSW,248,5.5,7.2,52,0.00,,,0.00,WUHU216TE923,2013-04-08 20:58:00,
2013-04-08 17:03:00,72.1,53.6,29.96,West,270,4.7,5.5,52,0.00,,,0.00,WUHU216TE923,2013-04-08 21:03:00,
2013-04-08 17:08:00,72.0,53.5,29.96,West,270,5.1,5.1,52,0.00,,,0.00,WUHU216TE923,2013-04-08 21:08:00,
2013-04-08 17:13:00,71.8,53.3,29.96,SW,225,5.6,8.1,52,0.00,,,0.00,WUHU216TE923,2013-04-08 21:13:00,
2013-04-08 17:18:00,71.8,53.3,29.96,SW,225,5.3,8.1,52,0.00,,,0.00,WUHU216TE923,2013-04-08 21:18:00,
2013-04-08 17:23:00,71.6,53.7,29.96,SW,225,5.4,6.2,53,0.00,,,0.00,WUHU216TE923,2013-04-08 21:23:00,
2013-04-08 17:28:00,71.6,53.7,29.96,West,270,4.6,6.2,53,0.00,,,0.00,WUHU216TE923,2013-04-08 21:28:00,
2013-04-08 17:33:00,71.4,53.5,29.96,WSW,248,4.2,5.7,53,0.00,,,0.00,WUHU216TE923,2013-04-08 21:33:00,
2013-04-08 17:38:00,71.4,53.5,29.93,SW,225,3.1,4.2,53,0.00,,,0.00,WUHU216TE923,2013-04-08 21:38:00,
2013-04-08 17:43:00,71.1,53.2,29.93,South,180,2.6,6.5,53,0.00,,,0.00,WUHU216TE923,2013-04-08 21:43:00,
2013-04-08 17:48:00,71.4,53.5,29.93,SW,225,3.8,6.5,53,0.00,,,0.00,WUHU216TE923,2013-04-08 21:48:00,
2013-04-08 17:53:00,71.4,53.0,29.93,WSW,248,4.4,5.8,52,0.00,,,0.00,WUHU216TE923,2013-04-08 21:53:00,
2013-04-08 17:58:00,71.6,53.7,29.95,West,270,3.1,4.7,53,0.00,,,0.00,WUHU216TE923,2013-04-08 21:58:00,
2013-04-08 18:03:00,71.8,53.3,29.95,WSW,248,2.4,3.1,52,0.00,,,0.00,WUHU216TE923,2013-04-08 22:03:00,
2013-04-08 18:08:00,72.3,54.3,29.95,South,180,2.5,2.8,53,0.00,,,0.00,WUHU216TE923,2013-04-08 22:08:00,
2013-04-08 18:13:00,72.5,54.5,29.95,SW,225,2.2,2.8,53,0.00,,,0.00,WUHU216TE923,2013-04-08 22:13:00,
2013-04-08 18:18:00,72.7,54.2,29.94,SSW,203,2.3,2.3,52,0.00,,,0.00,WUHU216TE923,2013-04-08 22:18:00,
2013-04-08 18:23:00,72.9,54.3,29.94,SW,225,2.5,3.7,52,0.00,,,0.00,WUHU216TE923,2013-04-08 22:23:00,
2013-04-08 18:28:00,72.9,54.3,29.94,WSW,248,2.7,3.7,52,0.00,,,0.00,WUHU216TE923,2013-04-08 22:28:00,
2013-04-08 18:33:00,73.0,54.4,29.94,South,180,3.1,4.2,52,0.00,,,0.00,WUHU216TE923,2013-04-08 22:33:00,
2013-04-08 18:38:00,73.0,54.4,29.96,SW,225,3.2,4.7,52,0.00,,,0.00,WUHU216TE923,2013-04-08 22:38:00,
2013-04-08 18:43:00,72.9,53.8,29.96,WSW,248,3.5,4.7,51,0.00,,,0.00,WUHU216TE923,2013-04-08 22:43:00,
2013-04-08 18:48:00,72.9,53.8,29.96,West,270,3.5,4.1,51,0.00,,,0.00,WUHU216TE923,2013-04-08 22:48:00,
2013-04-08 18:53:00,72.5,53.4,29.96,WSW,248,2.9,4.1,51,0.00,,,0.00,WUHU216TE923,2013-04-08 22:53:00,
2013-04-08 18:58:00,72.5,53.4,29.95,WSW,248,2.4,4.0,51,0.00,,,0.00,WUHU216TE923,2013-04-08 22:58:00,
2013-04-08 19:03:00,72.3,53.2,29.95,WSW,248,2.7,4.1,51,0.00,,,0.00,WUHU216TE923,2013-04-08 23:03:00,
2013-04-08 19:08:00,72.0,53.5,29.95,SSW,203,2.5,4.1,52,0.00,,,0.00,WUHU216TE923,2013-04-08 23:08:00,
2013-04-08 19:13:00,72.0,53.5,29.95,SSW,203,2.0,2.5,52,0.00,,,0.00,WUHU216TE923,2013-04-08 23:13:00,
2013-04-08 19:18:00,72.0,53.5,29.95,SW,225,1.6,2.1,52,0.00,,,0.00,WUHU216TE923,2013-04-08 23:18:00,
2013-04-08 19:23:00,71.8,53.3,29.95,South,180,1.6,2.5,52,0.00,,,0.00,WUHU216TE923,2013-04-08 23:23:00,
2013-04-08 19:29:00,71.8,53.3,29.95,WSW,248,2.3,2.8,52,0.00,,,0.00,WUHU216TE923,2013-04-08 23:29:00,
2013-04-08 19:34:00,71.6,53.1,29.95,WSW,248,2.2,2.8,52,0.00,,,0.00,WUHU216TE923,2013-04-08 23:34:00,
2013-04-08 19:39:00,71.4,53.0,29.97,WSW,248,1.2,2.2,52,0.00,,,0.00,WUHU216TE923,2013-04-08 23:39:00,
2013-04-08 19:44:00,71.1,53.2,29.97,SSE,158,0.7,1.2,53,0.00,,,0.00,WUHU216TE923,2013-04-08 23:44:00,
2013-04-08 19:49:00,70.9,53.5,29.97,South,180,0.2,1.2,54,0.00,,,0.00,WUHU216TE923,2013-04-08 23:49:00,
2013-04-08 19:54:00,70.5,53.2,29.97,NW,315,0.1,0.2,54,0.00,,,0.00,WUHU216TE923,2013-04-08 23:54:00,
2013-04-08 19:59:00,70.2,53.4,29.97,NW,315,0.0,0.1,55,0.00,,,0.00,WUHU216TE923,2013-04-08 23:59:00,
2013-04-08 20:04:00,70.0,53.2,29.97,NW,315,0.0,0.0,55,0.00,,,0.00,WUHU216TE923,2013-04-09 00:04:00,
2013-04-08 20:09:00,69.6,53.3,29.97,NW,315,0.0,0.0,56,0.00,,,0.00,WUHU216TE923,2013-04-09 00:09:00,
2013-04-08 20:14:00,69.6,53.3,29.97,NW,315,0.0,0.0,56,0.00,,,0.00,WUHU216TE923,2013-04-09 00:14:00,
2013-04-08 20:19:00,69.1,52.9,29.97,NW,315,0.0,0.0,56,0.00,,,0.00,WUHU216TE923,2013-04-09 00:19:00,
2013-04-08 20:25:00,68.7,53.0,29.97,NNE,23,0.1,0.1,57,0.00,,,0.00,WUHU216TE923,2013-04-09 00:25:00,
2013-04-08 20:30:00,68.2,52.5,29.97,NNE,23,0.1,0.1,57,0.00,,,0.00,WUHU216TE923,2013-04-09 00:30:00,
2013-04-08 20:35:00,68.2,52.5,29.97,NNE,23,0.1,1.0,57,0.00,,,0.00,WUHU216TE923,2013-04-09 00:35:00,
2013-04-08 20:40:00,68.0,52.3,29.98,NNE,23,0.6,1.0,57,0.00,,,0.00,WUHU216TE923,2013-04-09 00:40:00,
2013-04-08 20:45:00,67.8,52.6,29.98,NNE,23,0.7,0.7,58,0.00,,,0.00,WUHU216TE923,2013-04-09 00:45:00,
2013-04-08 20:49:00,67.5,52.4,29.98,NNE,23,0.4,0.7,58,0.00,,,0.00,WUHU216TE923,2013-04-09 00:49:00,
2013-04-08 20:54:00,67.1,52.4,29.98,NNE,23,0.3,0.4,59,0.00,,,0.00,WUHU216TE923,2013-04-09 00:54:00,
2013-04-08 20:59:00,66.7,52.1,29.98,NNE,23,0.0,0.3,59,0.00,,,0.00,WUHU216TE923,2013-04-09 00:59:00,
2013-04-08 21:05:00,66.6,52.0,29.98,NNE,23,0.0,0.0,59,0.00,,,0.00,WUHU216TE923,2013-04-09 01:05:00,
2013-04-08 21:10:00,66.4,52.3,29.98,NNE,23,0.0,0.0,60,0.00,,,0.00,WUHU216TE923,2013-04-09 01:10:00,
2013-04-08 21:15:00,66.0,52.3,29.98,NNE,23,0.0,0.0,61,0.00,,,0.00,WUHU216TE923,2013-04-09 01:15:00,
2013-04-08 21:20:00,65.7,52.0,29.98,NNE,23,0.0,0.0,61,0.00,,,0.00,WUHU216TE923,2013-04-09 01:20:00,
2013-04-08 21:25:00,65.5,51.9,29.98,NNE,23,0.0,0.0,61,0.00,,,0.00,WUHU216TE923,2013-04-09 01:25:00,
2013-04-08 21:30:00,65.1,51.9,29.98,NE,45,0.1,0.1,62,0.00,,,0.00,WUHU216TE923,2013-04-09 01:30:00,
2013-04-08 21:35:00,64.9,51.7,29.98,NE,45,0.1,0.1,62,0.00,,,0.00,WUHU216TE923,2013-04-09 01:35:00,
2013-04-08 21:40:00,64.8,51.6,30.00,NE,45,0.0,0.1,62,0.00,,,0.00,WUHU216TE923,2013-04-09 01:40:00,
2013-04-08 21:45:00,64.6,51.9,30.00,NE,45,0.0,0.0,63,0.00,,,0.00,WUHU216TE923,2013-04-09 01:45:00,
2013-04-08 21:51:00,64.4,51.7,30.00,NE,45,0.0,0.0,63,0.00,,,0.00,WUHU216TE923,2013-04-09 01:51:00,
2013-04-08 21:56:00,64.2,51.5,30.00,NE,45,0.0,0.0,63,0.00,,,0.00,WUHU216TE923,2013-04-09 01:56:00,
2013-04-08 22:01:00,63.9,51.6,30.01,NE,45,0.0,0.0,64,0.00,,,0.00,WUHU216TE923,2013-04-09 02:01:00,
2013-04-08 22:07:00,63.9,51.6,30.01,NE,45,0.0,0.0,64,0.00,,,0.00,WUHU216TE923,2013-04-09 02:07:00,
2013-04-08 22:12:00,63.5,51.7,30.01,NE,45,0.0,0.0,65,0.00,,,0.00,WUHU216TE923,2013-04-09 02:12:00,
2013-04-08 22:17:00,63.3,51.5,30.00,NE,45,0.0,0.0,65,0.00,,,0.00,WUHU216TE923,2013-04-09 02:17:00,
2013-04-08 22:22:00,63.1,51.3,30.00,NE,45,0.0,0.0,65,0.00,,,0.00,WUHU216TE923,2013-04-09 02:22:00,
2013-04-08 22:27:00,62.8,51.4,30.00,NE,45,0.0,0.0,66,0.00,,,0.00,WUHU216TE923,2013-04-09 02:27:00,
2013-04-08 22:32:00,62.6,51.2,30.00,NE,45,0.0,0.0,66,0.00,,,0.00,WUHU216TE923,2013-04-09 02:32:00,
2013-04-08 22:37:00,62.4,51.0,30.01,NE,45,0.0,0.0,66,0.00,,,0.00,WUHU216TE923,2013-04-09 02:37:00,
2013-04-08 22:42:00,62.4,51.0,30.01,NE,45,0.0,0.0,66,0.00,,,0.00,WUHU216TE923,2013-04-09 02:42:00,
2013-04-08 22:47:00,62.4,51.0,30.01,NE,45,0.0,0.0,66,0.00,,,0.00,WUHU216TE923,2013-04-09 02:47:00,
2013-04-08 22:52:00,62.2,50.9,30.01,NE,45,0.0,0.0,66,0.00,,,0.00,WUHU216TE923,2013-04-09 02:52:00,
2013-04-08 22:58:00,62.1,50.8,30.01,NE,45,0.0,0.0,66,0.00,,,0.00,WUHU216TE923,2013-04-09 02:58:00,
2013-04-08 23:03:00,61.9,51.0,30.01,NE,45,0.0,0.0,67,0.00,,,0.00,WUHU216TE923,2013-04-09 03:03:00,
2013-04-08 23:08:00,61.7,50.8,30.01,NE,45,0.0,0.0,67,0.00,,,0.00,WUHU216TE923,2013-04-09 03:08:00,
2013-04-08 23:13:00,61.7,50.8,30.01,NE,45,0.0,0.0,67,0.00,,,0.00,WUHU216TE923,2013-04-09 03:13:00,
2013-04-08 23:18:00,61.7,50.8,30.01,NE,45,0.0,0.0,67,0.00,,,0.00,WUHU216TE923,2013-04-09 03:18:00,
2013-04-08 23:23:00,61.3,50.8,30.01,NE,45,0.0,0.0,68,0.00,,,0.00,WUHU216TE923,2013-04-09 03:23:00,
2013-04-08 23:28:00,61.2,50.7,30.01,NE,45,0.0,0.0,68,0.00,,,0.00,WUHU216TE923,2013-04-09 03:28:00,
2013-04-08 23:33:00,61.0,50.5,30.01,NE,45,0.0,0.0,68,0.00,,,0.00,WUHU216TE923,2013-04-09 03:33:00,
2013-04-08 23:38:00,61.0,50.5,30.02,NE,45,0.0,0.0,68,0.00,,,0.00,WUHU216TE923,2013-04-09 03:38:00,
2013-04-08 23:43:00,60.8,50.3,30.02,NE,45,0.0,0.0,68,0.00,,,0.00,WUHU216TE923,2013-04-09 03:43:00,
2013-04-08 23:48:00,61.0,50.9,30.02,NE,45,0.0,0.0,69,0.00,,,0.00,WUHU216TE923,2013-04-09 03:48:00,
2013-04-08 23:53:00,60.8,50.7,30.02,NE,45,0.0,0.0,69,0.00,,,0.00,WUHU216TE923,2013-04-09 03:53:00,
2013-04-08 23:58:00,60.4,50.7,30.02,NE,45,0.0,0.0,70,0.00,,,0.00,WUHU216TE923,2013-04-09 03:58:00,